Observations for GUERNSEY AIRPORT, United Kingdom (EGJB)

EGJB 260450Z 24005KT 9999 3000SE VCFG FEW000 SCT002 BKN003 16/16 Q1019  
EGJB 260420Z 22004KT 5000 1200E VCFG BR FEW000 SCT001 BKN002 16/16 Q1018
EGJB 260350Z 21004KT 180V240 1500 0800SE BCFG BR SCT000 BKN001 16/16 Q1019  
EGJB 260320Z 21004KT 1500 0600E BCFG SCT000 SCT001 16/16 Q1019  
EGJB 260250Z 23004KT 1500 0800E BCFG SCT000 SCT001 16/16 Q1019  
EGJB 260150Z 29003KT 5000 BR FEW000 SCT002 16/16 Q1019  
EGJB 260120Z 28004KT 4000 BR SCT001 BKN002 17/17 Q1019  
EGJB 260050Z 27004KT 9999 FEW001 SCT003 BKN004 17/17 Q1019  
EGJB 260020Z 29004KT 250V350 9999 FEW001 BKN003 17/17 Q1020 
EGJB 252350Z 34005KT 8000 FEW001 SCT002 BKN003 17/17 Q1020  
EGJB 252320Z 32006KT 8000 FEW001 SCT002 BKN003 17/17 Q1020  
EGJB 252250Z 31006KT 9999 FEW001 BKN002 17/17 Q1020 
EGJB 252150Z 30006KT 9999 FEW001 BKN003 17/17 Q1020 
EGJB 252050Z 31007KT 9999 8000E SCT001 BKN002 17/17 Q1020   
EGJB 251950Z 30008KT 9999 FEW002 BKN003 17/17 Q1019 
EGJB 251920Z 30007KT 9999 SCT004 BKN005 17/17 Q1019 
EGJB 251850Z 28008KT 9999 FEW010 17/16 Q1019
EGJB 251820Z 26007KT CAVOK 18/16 Q1019  
EGJB 251750Z 24008KT CAVOK 19/16 Q1019  
EGJB 251720Z 25006KT 9999 FEW010 19/16 Q1019
EGJB 251650Z 27006KT 250V310 9999 FEW010 20/15 Q1019
EGJB 251620Z 26005KT 220V290 9999 FEW010 20/16 Q1019
EGJB 251550Z 28005KT 240V320 9999 FEW010 20/15 Q1019
EGJB 251520Z 28009KT 9999 FEW010 20/15 Q1019
EGJB 251450Z 23007KT 9999 FEW012 20/16 Q1019
EGJB 251420Z 25006KT 220V300 9999 FEW012 20/16 Q1019
EGJB 251350Z 27008KT 9999 FEW012 20/16 Q1019
EGJB 251320Z 28008KT 240V310 9999 VCSH FEW012 19/15 Q1019   
EGJB 251250Z 28007KT 230V320 9999 VCSH FEW012 20/15 Q1019   
EGJB 251220Z 29007KT 9999 FEW012 20/16 Q1019
EGJB 251150Z 27008KT 230V330 9999 FEW012 20/15 Q1019
EGJB 251120Z 28008KT 240V310 9999 SCT012 19/15 Q1019
EGJB 251050Z 29008KT 250V340 9999 FEW008 SCT012 19/15 Q1019 
EGJB 251020Z 29008KT 9999 FEW006 SCT010 19/16 Q1019 
EGJB 250950Z 28007KT 250V310 9999 FEW003 19/16 Q1019
EGJB 250920Z 28008KT 250V320 9999 FEW003 SCT006 19/16 Q1018 
EGJB 250850Z 29009KT 9999 FEW001 SCT006 18/17 Q1018 
EGJB 250820Z 29010KT 9999 5000W VCFG FEW000 SCT006 18/17 Q1018  
EGJB 250750Z 29009KT 9999 FEW001 SCT004 17/17 Q1018 
EGJB 250720Z 29009KT 8000 FEW001 SCT003 17/17 Q1018 
EGJB 250650Z 29008KT 8000 2000W VCFG FEW000 SCT002 17/17 Q1017  
EGJB 250620Z 28008KT 8000 FEW002 17/16 Q1017
EGJB 250550Z 29006KT 5000 BR FEW002 17/16 Q1017 
EGJB 250520Z 29006KT 6000 FEW003 16/16 Q1016
EGJB 250450Z 29008KT 7000 SCT003 17/16 Q1016
EGJB 250420Z 28009KT 5000 BR FEW001 BKN003 17/16 Q1016